sensor_id;sensor_type;location;lat;lon;timestamp;pressure;altitude;pressure_sealevel;temperature
41940;BMP180;23057;48.554;14.454;2023-04-01T00:01:46;92372.00;;;13.40
41940;BMP180;23057;48.554;14.454;2023-04-01T00:04:16;92371.00;;;13.40
41940;BMP180;23057;48.554;14.454;2023-04-01T00:06:47;92365.00;;;13.40
41940;BMP180;23057;48.554;14.454;2023-04-01T00:09:18;92368.00;;;13.40
41940;BMP180;23057;48.554;14.454;2023-04-01T00:11:49;92360.00;;;13.30
41940;BMP180;23057;48.554;14.454;2023-04-01T00:14:20;92373.00;;;13.40
41940;BMP180;23057;48.554;14.454;2023-04-01T00:16:51;92376.00;;;13.40
41940;BMP180;23057;48.554;14.454;2023-04-01T00:19:22;92366.00;;;13.40
41940;BMP180;23057;48.554;14.454;2023-04-01T00:21:53;92376.00;;;13.40
41940;BMP180;23057;48.554;14.454;2023-04-01T00:24:24;92392.00;;;13.50
41940;BMP180;23057;48.554;14.454;2023-04-01T00:26:55;92394.00;;;13.50
41940;BMP180;23057;48.554;14.454;2023-04-01T00:29:26;92394.00;;;13.50
41940;BMP180;23057;48.554;14.454;2023-04-01T00:31:59;92395.00;;;13.60
41940;BMP180;23057;48.554;14.454;2023-04-01T00:34:30;92389.00;;;13.60
41940;BMP180;23057;48.554;14.454;2023-04-01T00:37:01;92395.00;;;13.60
41940;BMP180;23057;48.554;14.454;2023-04-01T00:39:33;92401.00;;;13.60
41940;BMP180;23057;48.554;14.454;2023-04-01T00:42:04;92395.00;;;13.60
41940;BMP180;23057;48.554;14.454;2023-04-01T00:44:37;92398.00;;;13.70
41940;BMP180;23057;48.554;14.454;2023-04-01T00:47:08;92398.00;;;13.60
41940;BMP180;23057;48.554;14.454;2023-04-01T00:49:41;92398.00;;;13.60
41940;BMP180;23057;48.554;14.454;2023-04-01T00:52:19;92415.00;;;13.60
41940;BMP180;23057;48.554;14.454;2023-04-01T00:54:56;92408.00;;;13.60
41940;BMP180;23057;48.554;14.454;2023-04-01T00:57:35;92408.00;;;13.60
41940;BMP180;23057;48.554;14.454;2023-04-01T01:00:11;92403.00;;;13.60
41940;BMP180;23057;48.554;14.454;2023-04-01T01:02:45;92399.00;;;13.60
41940;BMP180;23057;48.554;14.454;2023-04-01T01:05:17;92387.00;;;13.60
41940;BMP180;23057;48.554;14.454;2023-04-01T01:08:06;92408.00;;;13.60
41940;BMP180;23057;48.554;14.454;2023-04-01T01:10:52;92406.00;;;13.60
41940;BMP180;23057;48.554;14.454;2023-04-01T01:13:33;92401.00;;;13.60
41940;BMP180;23057;48.554;14.454;2023-04-01T01:19:16;92398.00;;;13.60
41940;BMP180;23057;48.554;14.454;2023-04-01T01:22:32;92397.00;;;13.60
41940;BMP180;23057;48.554;14.454;2023-04-01T01:25:54;92390.00;;;13.50
41940;BMP180;23057;48.554;14.454;2023-04-01T01:32:17;92387.00;;;13.50
41940;BMP180;23057;48.554;14.454;2023-04-01T01:38:01;92386.00;;;13.50
41940;BMP180;23057;48.554;14.454;2023-04-01T01:40:35;92390.00;;;13.50
41940;BMP180;23057;48.554;14.454;2023-04-01T01:43:12;92392.00;;;13.50
41940;BMP180;23057;48.554;14.454;2023-04-01T01:45:50;92393.00;;;13.50
41940;BMP180;23057;48.554;14.454;2023-04-01T01:48:27;92384.00;;;13.50
41940;BMP180;23057;48.554;14.454;2023-04-01T01:51:00;92393.00;;;13.50
41940;BMP180;23057;48.554;14.454;2023-04-01T01:53:31;92377.00;;;13.50
41940;BMP180;23057;48.554;14.454;2023-04-01T01:56:02;92395.00;;;13.50
41940;BMP180;23057;48.554;14.454;2023-04-01T01:58:43;92387.00;;;13.40
41940;BMP180;23057;48.554;14.454;2023-04-01T02:01:28;92377.00;;;13.40
41940;BMP180;23057;48.554;14.454;2023-04-01T02:04:02;92366.00;;;13.40
41940;BMP180;23057;48.554;14.454;2023-04-01T02:06:38;92375.00;;;13.40
41940;BMP180;23057;48.554;14.454;2023-04-01T02:09:13;92376.00;;;13.40
41940;BMP180;23057;48.554;14.454;2023-04-01T02:11:57;92390.00;;;13.40
41940;BMP180;23057;48.554;14.454;2023-04-01T02:14:43;92394.00;;;13.30
41940;BMP180;23057;48.554;14.454;2023-04-01T02:17:18;92391.00;;;13.30
41940;BMP180;23057;48.554;14.454;2023-04-01T02:19:55;92396.00;;;13.30
41940;BMP180;23057;48.554;14.454;2023-04-01T02:22:31;92394.00;;;13.30
41940;BMP180;23057;48.554;14.454;2023-04-01T02:25:12;92390.00;;;13.30
41940;BMP180;23057;48.554;14.454;2023-04-01T02:27:46;92395.00;;;13.30
41940;BMP180;23057;48.554;14.454;2023-04-01T02:30:18;92398.00;;;13.30
41940;BMP180;23057;48.554;14.454;2023-04-01T02:32:49;92390.00;;;13.30
41940;BMP180;23057;48.554;14.454;2023-04-01T02:35:20;92382.00;;;13.30
41940;BMP180;23057;48.554;14.454;2023-04-01T02:37:53;92375.00;;;13.30
41940;BMP180;23057;48.554;14.454;2023-04-01T02:40:25;92373.00;;;13.30
41940;BMP180;23057;48.554;14.454;2023-04-01T02:42:56;92376.00;;;13.30
41940;BMP180;23057;48.554;14.454;2023-04-01T02:45:26;92385.00;;;13.30
41940;BMP180;23057;48.554;14.454;2023-04-01T02:47:57;92386.00;;;13.30
41940;BMP180;23057;48.554;14.454;2023-04-01T02:50:28;92392.00;;;13.30
41940;BMP180;23057;48.554;14.454;2023-04-01T02:52:59;92395.00;;;13.30
41940;BMP180;23057;48.554;14.454;2023-04-01T02:55:29;92402.00;;;13.30
41940;BMP180;23057;48.554;14.454;2023-04-01T02:58:01;92394.00;;;13.30
41940;BMP180;23057;48.554;14.454;2023-04-01T03:00:32;92399.00;;;13.30
41940;BMP180;23057;48.554;14.454;2023-04-01T03:03:03;92398.00;;;13.30
41940;BMP180;23057;48.554;14.454;2023-04-01T03:05:34;92404.00;;;13.30
41940;BMP180;23057;48.554;14.454;2023-04-01T03:08:05;92411.00;;;13.20
41940;BMP180;23057;48.554;14.454;2023-04-01T03:10:36;92407.00;;;13.20
41940;BMP180;23057;48.554;14.454;2023-04-01T03:13:07;92400.00;;;13.20
41940;BMP180;23057;48.554;14.454;2023-04-01T03:15:38;92404.00;;;13.20
41940;BMP180;23057;48.554;14.454;2023-04-01T03:18:09;92408.00;;;13.20
41940;BMP180;23057;48.554;14.454;2023-04-01T03:20:40;92408.00;;;13.20
41940;BMP180;23057;48.554;14.454;2023-04-01T03:23:11;92407.00;;;13.20
41940;BMP180;23057;48.554;14.454;2023-04-01T03:25:42;92409.00;;;13.10
41940;BMP180;23057;48.554;14.454;2023-04-01T03:28:12;92407.00;;;13.10
41940;BMP180;23057;48.554;14.454;2023-04-01T03:30:43;92401.00;;;13.10
41940;BMP180;23057;48.554;14.454;2023-04-01T03:33:14;92413.00;;;13.10
41940;BMP180;23057;48.554;14.454;2023-04-01T03:35:45;92404.00;;;13.10
41940;BMP180;23057;48.554;14.454;2023-04-01T03:38:15;92419.00;;;13.10
41940;BMP180;23057;48.554;14.454;2023-04-01T03:40:46;92420.00;;;13.10
41940;BMP180;23057;48.554;14.454;2023-04-01T03:43:17;92408.00;;;13.10
41940;BMP180;23057;48.554;14.454;2023-04-01T03:45:49;92414.00;;;13.10
41940;BMP180;23057;48.554;14.454;2023-04-01T03:48:21;92419.00;;;13.10
41940;BMP180;23057;48.554;14.454;2023-04-01T03:50:52;92407.00;;;13.10
41940;BMP180;23057;48.554;14.454;2023-04-01T03:53:23;92423.00;;;13.10
41940;BMP180;23057;48.554;14.454;2023-04-01T03:55:54;92420.00;;;13.10
41940;BMP180;23057;48.554;14.454;2023-04-01T03:58:25;92422.00;;;13.10
41940;BMP180;23057;48.554;14.454;2023-04-01T04:00:55;92427.00;;;13.10
41940;BMP180;23057;48.554;14.454;2023-04-01T04:03:26;92428.00;;;13.10
41940;BMP180;23057;48.554;14.454;2023-04-01T04:05:57;92423.00;;;13.10
41940;BMP180;23057;48.554;14.454;2023-04-01T04:08:28;92427.00;;;13.10
41940;BMP180;23057;48.554;14.454;2023-04-01T04:10:58;92419.00;;;13.10
41940;BMP180;23057;48.554;14.454;2023-04-01T04:13:29;92426.00;;;13.10
41940;BMP180;23057;48.554;14.454;2023-04-01T04:16:00;92432.00;;;13.10
41940;BMP180;23057;48.554;14.454;2023-04-01T04:18:31;92421.00;;;13.10
41940;BMP180;23057;48.554;14.454;2023-04-01T04:21:02;92434.00;;;13.10
41940;BMP180;23057;48.554;14.454;2023-04-01T04:23:33;92437.00;;;13.10
41940;BMP180;23057;48.554;14.454;2023-04-01T04:26:06;92432.00;;;13.00
41940;BMP180;23057;48.554;14.454;2023-04-01T04:28:39;92433.00;;;13.00
41940;BMP180;23057;48.554;14.454;2023-04-01T04:31:10;92427.00;;;13.00
41940;BMP180;23057;48.554;14.454;2023-04-01T04:33:40;92430.00;;;13.00
41940;BMP180;23057;48.554;14.454;2023-04-01T04:36:11;92437.00;;;13.00
41940;BMP180;23057;48.554;14.454;2023-04-01T04:38:42;92428.00;;;13.00
41940;BMP180;23057;48.554;14.454;2023-04-01T04:41:15;92438.00;;;13.00
41940;BMP180;23057;48.554;14.454;2023-04-01T04:43:50;92432.00;;;13.00
41940;BMP180;23057;48.554;14.454;2023-04-01T04:46:23;92434.00;;;13.00
41940;BMP180;23057;48.554;14.454;2023-04-01T04:48:54;92440.00;;;13.00
41940;BMP180;23057;48.554;14.454;2023-04-01T04:51:25;92431.00;;;13.00
41940;BMP180;23057;48.554;14.454;2023-04-01T04:53:56;92433.00;;;13.00
41940;BMP180;23057;48.554;14.454;2023-04-01T04:56:26;92440.00;;;13.00
41940;BMP180;23057;48.554;14.454;2023-04-01T04:58:57;92440.00;;;13.10
41940;BMP180;23057;48.554;14.454;2023-04-01T05:01:28;92430.00;;;13.10
41940;BMP180;23057;48.554;14.454;2023-04-01T05:03:59;92437.00;;;13.10
41940;BMP180;23057;48.554;14.454;2023-04-01T05:06:30;92438.00;;;13.00
41940;BMP180;23057;48.554;14.454;2023-04-01T05:09:01;92443.00;;;13.00
41940;BMP180;23057;48.554;14.454;2023-04-01T05:11:32;92437.00;;;13.00
41940;BMP180;23057;48.554;14.454;2023-04-01T05:14:03;92443.00;;;13.00
41940;BMP180;23057;48.554;14.454;2023-04-01T05:16:34;92443.00;;;13.00
41940;BMP180;23057;48.554;14.454;2023-04-01T05:19:04;92442.00;;;13.00
41940;BMP180;23057;48.554;14.454;2023-04-01T05:21:35;92447.00;;;13.00
41940;BMP180;23057;48.554;14.454;2023-04-01T05:24:09;92451.00;;;13.00
41940;BMP180;23057;48.554;14.454;2023-04-01T05:26:40;92447.00;;;13.00
41940;BMP180;23057;48.554;14.454;2023-04-01T05:29:11;92449.00;;;13.10
41940;BMP180;23057;48.554;14.454;2023-04-01T05:31:42;92444.00;;;13.10
41940;BMP180;23057;48.554;14.454;2023-04-01T05:34:13;92448.00;;;13.10
41940;BMP180;23057;48.554;14.454;2023-04-01T05:36:44;92442.00;;;13.20
41940;BMP180;23057;48.554;14.454;2023-04-01T05:39:15;92450.00;;;13.20
41940;BMP180;23057;48.554;14.454;2023-04-01T05:41:45;92436.00;;;13.20
41940;BMP180;23057;48.554;14.454;2023-04-01T05:44:16;92445.00;;;13.20
41940;BMP180;23057;48.554;14.454;2023-04-01T05:46:48;92450.00;;;13.20
41940;BMP180;23057;48.554;14.454;2023-04-01T05:49:18;92443.00;;;13.20
41940;BMP180;23057;48.554;14.454;2023-04-01T05:51:49;92447.00;;;13.20
41940;BMP180;23057;48.554;14.454;2023-04-01T05:54:21;92452.00;;;13.30
41940;BMP180;23057;48.554;14.454;2023-04-01T05:56:52;92448.00;;;13.30
41940;BMP180;23057;48.554;14.454;2023-04-01T05:59:23;92445.00;;;13.30
41940;BMP180;23057;48.554;14.454;2023-04-01T06:01:54;92453.00;;;13.40
41940;BMP180;23057;48.554;14.454;2023-04-01T06:04:28;92451.00;;;13.40
41940;BMP180;23057;48.554;14.454;2023-04-01T06:07:13;92441.00;;;13.40
41940;BMP180;23057;48.554;14.454;2023-04-01T06:09:45;92446.00;;;13.40
41940;BMP180;23057;48.554;14.454;2023-04-01T06:12:40;92455.00;;;13.40
41940;BMP180;23057;48.554;14.454;2023-04-01T06:15:24;92454.00;;;13.40
41940;BMP180;23057;48.554;14.454;2023-04-01T06:18:36;92457.00;;;13.50
41940;BMP180;23057;48.554;14.454;2023-04-01T06:30:44;92470.00;;;13.60
41940;BMP180;23057;48.554;14.454;2023-04-01T06:33:48;92469.00;;;13.60
41940;BMP180;23057;48.554;14.454;2023-04-01T06:45:56;92457.00;;;13.80
41940;BMP180;23057;48.554;14.454;2023-04-01T06:48:55;92462.00;;;13.80
41940;BMP180;23057;48.554;14.454;2023-04-01T06:51:51;92464.00;;;13.70
41940;BMP180;23057;48.554;14.454;2023-04-01T06:54:34;92463.00;;;13.80
41940;BMP180;23057;48.554;14.454;2023-04-01T06:57:41;92473.00;;;13.90
41940;BMP180;23057;48.554;14.454;2023-04-01T07:00:30;92476.00;;;13.90
41940;BMP180;23057;48.554;14.454;2023-04-01T07:03:20;92462.00;;;13.90
41940;BMP180;23057;48.554;14.454;2023-04-01T07:06:12;92473.00;;;13.90
41940;BMP180;23057;48.554;14.454;2023-04-01T07:08:46;92464.00;;;13.90
41940;BMP180;23057;48.554;14.454;2023-04-01T07:11:39;92473.00;;;13.90
41940;BMP180;23057;48.554;14.454;2023-04-01T07:14:20;92458.00;;;13.90
41940;BMP180;23057;48.554;14.454;2023-04-01T07:17:00;92461.00;;;13.80
41940;BMP180;23057;48.554;14.454;2023-04-01T07:19:48;92466.00;;;13.80
41940;BMP180;23057;48.554;14.454;2023-04-01T07:22:31;92471.00;;;13.80
41940;BMP180;23057;48.554;14.454;2023-04-01T07:25:19;92473.00;;;13.70
41940;BMP180;23057;48.554;14.454;2023-04-01T07:27:56;92459.00;;;13.70
41940;BMP180;23057;48.554;14.454;2023-04-01T07:45:39;92480.00;;;13.60
41940;BMP180;23057;48.554;14.454;2023-04-01T07:51:34;92483.00;;;13.70
41940;BMP180;23057;48.554;14.454;2023-04-01T08:00:08;92482.00;;;13.80
41940;BMP180;23057;48.554;14.454;2023-04-01T08:06:19;92490.00;;;13.90
41940;BMP180;23057;48.554;14.454;2023-04-01T08:09:05;92487.00;;;14.00
41940;BMP180;23057;48.554;14.454;2023-04-01T08:20:56;92499.00;;;14.20
41940;BMP180;23057;48.554;14.454;2023-04-01T08:23:40;92499.00;;;14.30
41940;BMP180;23057;48.554;14.454;2023-04-01T08:26:30;92504.00;;;14.30
41940;BMP180;23057;48.554;14.454;2023-04-01T08:32:22;92498.00;;;14.30
41940;BMP180;23057;48.554;14.454;2023-04-01T08:38:15;92502.00;;;14.40
41940;BMP180;23057;48.554;14.454;2023-04-01T08:41:26;92504.00;;;14.50
41940;BMP180;23057;48.554;14.454;2023-04-01T08:44:34;92510.00;;;14.60
41940;BMP180;23057;48.554;14.454;2023-04-01T08:49:50;92522.00;;;14.50
41940;BMP180;23057;48.554;14.454;2023-04-01T08:53:00;92518.00;;;14.50
41940;BMP180;23057;48.554;14.454;2023-04-01T09:02:04;92499.00;;;14.90
41940;BMP180;23057;48.554;14.454;2023-04-01T09:08:21;92504.00;;;15.10
41940;BMP180;23057;48.554;14.454;2023-04-01T09:11:19;92509.00;;;15.10
41940;BMP180;23057;48.554;14.454;2023-04-01T09:24:00;92519.00;;;15.60
41940;BMP180;23057;48.554;14.454;2023-04-01T09:38:59;92536.00;;;15.80
41940;BMP180;23057;48.554;14.454;2023-04-01T09:50:52;92508.00;;;16.20
41940;BMP180;23057;48.554;14.454;2023-04-01T09:59:49;92506.00;;;16.00
41940;BMP180;23057;48.554;14.454;2023-04-01T10:33:38;92516.00;;;17.10
41940;BMP180;23057;48.554;14.454;2023-04-01T10:36:50;92506.00;;;16.90
41940;BMP180;23057;48.554;14.454;2023-04-01T10:46:28;92507.00;;;16.60
41940;BMP180;23057;48.554;14.454;2023-04-01T10:55:24;92502.00;;;17.40
41940;BMP180;23057;48.554;14.454;2023-04-01T11:17:30;92502.00;;;17.20
41940;BMP180;23057;48.554;14.454;2023-04-01T11:20:28;92502.00;;;17.20
41940;BMP180;23057;48.554;14.454;2023-04-01T11:23:27;92506.00;;;17.10
41940;BMP180;23057;48.554;14.454;2023-04-01T11:26:09;92494.00;;;17.10
41940;BMP180;23057;48.554;14.454;2023-04-01T11:32:13;92493.00;;;17.10
41940;BMP180;23057;48.554;14.454;2023-04-01T11:50:15;92483.00;;;17.70
41940;BMP180;23057;48.554;14.454;2023-04-01T12:05:23;92465.00;;;18.40
41940;BMP180;23057;48.554;14.454;2023-04-01T12:17:27;92474.00;;;18.60
41940;BMP180;23057;48.554;14.454;2023-04-01T12:23:58;92475.00;;;18.70
41940;BMP180;23057;48.554;14.454;2023-04-01T12:26:52;92476.00;;;18.80
41940;BMP180;23057;48.554;14.454;2023-04-01T12:30:12;92485.00;;;18.90
41940;BMP180;23057;48.554;14.454;2023-04-01T12:37:25;92477.00;;;19.00
41940;BMP180;23057;48.554;14.454;2023-04-01T12:40:24;92482.00;;;18.90
41940;BMP180;23057;48.554;14.454;2023-04-01T12:52:43;92486.00;;;18.70
41940;BMP180;23057;48.554;14.454;2023-04-01T12:55:43;92488.00;;;18.60
41940;BMP180;23057;48.554;14.454;2023-04-01T13:13:14;92523.00;;;17.40
41940;BMP180;23057;48.554;14.454;2023-04-01T13:15:58;92523.00;;;17.30
41940;BMP180;23057;48.554;14.454;2023-04-01T13:19:21;92523.00;;;17.20
41940;BMP180;23057;48.554;14.454;2023-04-01T13:22:31;92521.00;;;17.10
41940;BMP180;23057;48.554;14.454;2023-04-01T13:28:17;92517.00;;;17.00
41940;BMP180;23057;48.554;14.454;2023-04-01T13:31:02;92518.00;;;17.10
41940;BMP180;23057;48.554;14.454;2023-04-01T13:34:22;92518.00;;;17.20
41940;BMP180;23057;48.554;14.454;2023-04-01T13:39:59;92502.00;;;17.30
41940;BMP180;23057;48.554;14.454;2023-04-01T13:43:02;92507.00;;;17.30
41940;BMP180;23057;48.554;14.454;2023-04-01T13:46:03;92512.00;;;17.30
41940;BMP180;23057;48.554;14.454;2023-04-01T14:00:46;92498.00;;;17.50
41940;BMP180;23057;48.554;14.454;2023-04-01T14:08:02;92499.00;;;17.50
41940;BMP180;23057;48.554;14.454;2023-04-01T14:13:37;92498.00;;;17.40
41940;BMP180;23057;48.554;14.454;2023-04-01T14:16:22;92496.00;;;17.40
41940;BMP180;23057;48.554;14.454;2023-04-01T14:25:46;92518.00;;;17.50
41940;BMP180;23057;48.554;14.454;2023-04-01T14:31:53;92510.00;;;17.30
41940;BMP180;23057;48.554;14.454;2023-04-01T14:38:17;92517.00;;;17.20
41940;BMP180;23057;48.554;14.454;2023-04-01T14:41:27;92517.00;;;17.20
41940;BMP180;23057;48.554;14.454;2023-04-01T14:49:39;92510.00;;;17.00
41940;BMP180;23057;48.554;14.454;2023-04-01T14:52:17;92506.00;;;16.90
41940;BMP180;23057;48.554;14.454;2023-04-01T14:54:58;92520.00;;;16.90
41940;BMP180;23057;48.554;14.454;2023-04-01T14:57:30;92507.00;;;16.90
41940;BMP180;23057;48.554;14.454;2023-04-01T15:02:58;92502.00;;;16.70
41940;BMP180;23057;48.554;14.454;2023-04-01T15:05:49;92502.00;;;16.50
41940;BMP180;23057;48.554;14.454;2023-04-01T15:08:49;92507.00;;;16.40
41940;BMP180;23057;48.554;14.454;2023-04-01T15:23:54;92543.00;;;15.70
41940;BMP180;23057;48.554;14.454;2023-04-01T15:26:47;92531.00;;;15.50
41940;BMP180;23057;48.554;14.454;2023-04-01T15:35:47;92544.00;;;15.20
41940;BMP180;23057;48.554;14.454;2023-04-01T15:38:34;92536.00;;;15.20
41940;BMP180;23057;48.554;14.454;2023-04-01T15:41:24;92533.00;;;15.20
41940;BMP180;23057;48.554;14.454;2023-04-01T15:55:40;92558.00;;;15.00
41940;BMP180;23057;48.554;14.454;2023-04-01T16:01:34;92553.00;;;15.00
41940;BMP180;23057;48.554;14.454;2023-04-01T16:20:02;92578.00;;;14.70
41940;BMP180;23057;48.554;14.454;2023-04-01T16:22:58;92578.00;;;14.70
41940;BMP180;23057;48.554;14.454;2023-04-01T16:25:43;92579.00;;;14.70
41940;BMP180;23057;48.554;14.454;2023-04-01T16:28:28;92577.00;;;14.60
41940;BMP180;23057;48.554;14.454;2023-04-01T16:31:31;92591.00;;;14.60
41940;BMP180;23057;48.554;14.454;2023-04-01T16:34:10;92584.00;;;14.50
41940;BMP180;23057;48.554;14.454;2023-04-01T16:37:10;92586.00;;;14.50
41940;BMP180;23057;48.554;14.454;2023-04-01T16:40:23;92586.00;;;14.50
41940;BMP180;23057;48.554;14.454;2023-04-01T16:43:35;92589.00;;;14.40
41940;BMP180;23057;48.554;14.454;2023-04-01T16:46:15;92594.00;;;14.30
41940;BMP180;23057;48.554;14.454;2023-04-01T16:51:52;92593.00;;;14.20
41940;BMP180;23057;48.554;14.454;2023-04-01T16:54:53;92596.00;;;14.20
41940;BMP180;23057;48.554;14.454;2023-04-01T16:57:50;92606.00;;;14.10
41940;BMP180;23057;48.554;14.454;2023-04-01T17:00:29;92609.00;;;14.10
41940;BMP180;23057;48.554;14.454;2023-04-01T17:03:32;92602.00;;;14.10
41940;BMP180;23057;48.554;14.454;2023-04-01T17:06:31;92617.00;;;14.10
41940;BMP180;23057;48.554;14.454;2023-04-01T17:09:21;92617.00;;;14.00
41940;BMP180;23057;48.554;14.454;2023-04-01T17:21:03;92623.00;;;14.10
41940;BMP180;23057;48.554;14.454;2023-04-01T17:24:45;92629.00;;;14.10
41940;BMP180;23057;48.554;14.454;2023-04-01T17:27:42;92617.00;;;14.10
41940;BMP180;23057;48.554;14.454;2023-04-01T17:37:06;92615.00;;;14.00
41940;BMP180;23057;48.554;14.454;2023-04-01T17:40:00;92617.00;;;14.00
41940;BMP180;23057;48.554;14.454;2023-04-01T17:49:27;92627.00;;;13.90
41940;BMP180;23057;48.554;14.454;2023-04-01T17:57:48;92634.00;;;14.00
41940;BMP180;23057;48.554;14.454;2023-04-01T18:03:54;92646.00;;;14.00
41940;BMP180;23057;48.554;14.454;2023-04-01T18:06:36;92646.00;;;14.00
41940;BMP180;23057;48.554;14.454;2023-04-01T18:10:25;92649.00;;;14.00
41940;BMP180;23057;48.554;14.454;2023-04-01T18:24:24;92659.00;;;14.00
41940;BMP180;23057;48.554;14.454;2023-04-01T18:29:47;92665.00;;;14.10
41940;BMP180;23057;48.554;14.454;2023-04-01T18:39:23;92673.00;;;14.10
41940;BMP180;23057;48.554;14.454;2023-04-01T18:45:18;92680.00;;;14.10
41940;BMP180;23057;48.554;14.454;2023-04-01T18:48:27;92681.00;;;14.10
41940;BMP180;23057;48.554;14.454;2023-04-01T18:54:19;92683.00;;;14.10
41940;BMP180;23057;48.554;14.454;2023-04-01T18:57:26;92689.00;;;14.10
41940;BMP180;23057;48.554;14.454;2023-04-01T19:00:14;92683.00;;;14.20
41940;BMP180;23057;48.554;14.454;2023-04-01T19:03:01;92681.00;;;14.20
41940;BMP180;23057;48.554;14.454;2023-04-01T19:05:39;92689.00;;;14.20
41940;BMP180;23057;48.554;14.454;2023-04-01T19:11:15;92687.00;;;14.10
41940;BMP180;23057;48.554;14.454;2023-04-01T19:14:13;92692.00;;;14.10
41940;BMP180;23057;48.554;14.454;2023-04-01T19:17:16;92687.00;;;14.10
41940;BMP180;23057;48.554;14.454;2023-04-01T19:20:41;92689.00;;;14.20
41940;BMP180;23057;48.554;14.454;2023-04-01T19:26:39;92701.00;;;14.10
41940;BMP180;23057;48.554;14.454;2023-04-01T19:29:42;92691.00;;;14.20
41940;BMP180;23057;48.554;14.454;2023-04-01T19:32:55;92689.00;;;14.10
41940;BMP180;23057;48.554;14.454;2023-04-01T19:36:28;92701.00;;;14.10
41940;BMP180;23057;48.554;14.454;2023-04-01T19:45:20;92699.00;;;14.10
41940;BMP180;23057;48.554;14.454;2023-04-01T19:48:00;92693.00;;;14.10
41940;BMP180;23057;48.554;14.454;2023-04-01T19:50:49;92704.00;;;14.10
41940;BMP180;23057;48.554;14.454;2023-04-01T20:00:01;92709.00;;;14.00
41940;BMP180;23057;48.554;14.454;2023-04-01T20:03:02;92711.00;;;14.00
41940;BMP180;23057;48.554;14.454;2023-04-01T20:11:34;92707.00;;;14.00
41940;BMP180;23057;48.554;14.454;2023-04-01T20:14:28;92715.00;;;14.00
41940;BMP180;23057;48.554;14.454;2023-04-01T20:17:55;92715.00;;;13.90
41940;BMP180;23057;48.554;14.454;2023-04-01T20:22:59;92721.00;;;13.90
41940;BMP180;23057;48.554;14.454;2023-04-01T20:25:41;92721.00;;;13.80
41940;BMP180;23057;48.554;14.454;2023-04-01T20:31:15;92721.00;;;13.80
41940;BMP180;23057;48.554;14.454;2023-04-01T20:34:35;92713.00;;;13.80
41940;BMP180;23057;48.554;14.454;2023-04-01T20:40:29;92715.00;;;13.80
41940;BMP180;23057;48.554;14.454;2023-04-01T20:46:15;92724.00;;;13.70
41940;BMP180;23057;48.554;14.454;2023-04-01T20:52:02;92727.00;;;13.80
41940;BMP180;23057;48.554;14.454;2023-04-01T20:57:59;92738.00;;;13.70
41940;BMP180;23057;48.554;14.454;2023-04-01T21:03:54;92740.00;;;13.80
41940;BMP180;23057;48.554;14.454;2023-04-01T21:10:48;92746.00;;;13.80
41940;BMP180;23057;48.554;14.454;2023-04-01T21:20:00;92749.00;;;13.80
41940;BMP180;23057;48.554;14.454;2023-04-01T21:22:44;92748.00;;;13.80
41940;BMP180;23057;48.554;14.454;2023-04-01T21:25:49;92760.00;;;13.80
41940;BMP180;23057;48.554;14.454;2023-04-01T21:34:35;92767.00;;;13.80
41940;BMP180;23057;48.554;14.454;2023-04-01T21:37:31;92761.00;;;13.80
41940;BMP180;23057;48.554;14.454;2023-04-01T21:46:28;92759.00;;;13.80
41940;BMP180;23057;48.554;14.454;2023-04-01T22:01:09;92771.00;;;13.70
41940;BMP180;23057;48.554;14.454;2023-04-01T22:07:06;92771.00;;;13.80
41940;BMP180;23057;48.554;14.454;2023-04-01T22:13:22;92761.00;;;13.80
41940;BMP180;23057;48.554;14.454;2023-04-01T22:19:06;92759.00;;;13.80
41940;BMP180;23057;48.554;14.454;2023-04-01T22:24:37;92761.00;;;13.70
41940;BMP180;23057;48.554;14.454;2023-04-01T22:27:41;92760.00;;;13.70
41940;BMP180;23057;48.554;14.454;2023-04-01T22:30:24;92754.00;;;13.70
41940;BMP180;23057;48.554;14.454;2023-04-01T22:33:16;92758.00;;;13.70
41940;BMP180;23057;48.554;14.454;2023-04-01T22:50:56;92764.00;;;13.70
41940;BMP180;23057;48.554;14.454;2023-04-01T22:54:09;92773.00;;;13.70
41940;BMP180;23057;48.554;14.454;2023-04-01T22:56:51;92770.00;;;13.80
41940;BMP180;23057;48.554;14.454;2023-04-01T23:02:33;92782.00;;;13.80
41940;BMP180;23057;48.554;14.454;2023-04-01T23:05:37;92786.00;;;13.80
41940;BMP180;23057;48.554;14.454;2023-04-01T23:11:18;92787.00;;;13.80
41940;BMP180;23057;48.554;14.454;2023-04-01T23:26:05;92798.00;;;13.90
41940;BMP180;23057;48.554;14.454;2023-04-01T23:28:51;92795.00;;;13.90
41940;BMP180;23057;48.554;14.454;2023-04-01T23:31:34;92801.00;;;14.00
41940;BMP180;23057;48.554;14.454;2023-04-01T23:36:45;92794.00;;;14.00
41940;BMP180;23057;48.554;14.454;2023-04-01T23:39:38;92800.00;;;13.90
41940;BMP180;23057;48.554;14.454;2023-04-01T23:42:30;92809.00;;;13.90
41940;BMP180;23057;48.554;14.454;2023-04-01T23:45:11;92805.00;;;13.90
41940;BMP180;23057;48.554;14.454;2023-04-01T23:47:45;92801.00;;;13.90
41940;BMP180;23057;48.554;14.454;2023-04-01T23:50:24;92812.00;;;14.00
41940;BMP180;23057;48.554;14.454;2023-04-01T23:53:02;92803.00;;;13.90
41940;BMP180;23057;48.554;14.454;2023-04-01T23:55:41;92802.00;;;13.90
41940;BMP180;23057;48.554;14.454;2023-04-01T23:58:22;92808.00;;;13.90
